Time;durP1;ratioP1;P1;durP2;ratioP2;P2;SDS_P1;SDS_P2;PMS_P1;PMS_P2;Temp;Humidity;BMP_temperature;BMP_pressure;BME280_temperature;BME280_humidity;BME280_pressure;Samples;Min_cycle;Max_cycle;Signal;HPM_P1;HPM_P2
2022/04/09 00:00:33;;;;;;;6.18;3.13;;;14.50;96.50;;;;;;5076531;28;20463;-77
2022/04/09 00:02:59;;;;;;;6.35;2.72;;;14.50;96.40;;;;;;5076205;28;20033;-77
2022/04/09 00:05:26;;;;;;;9.98;3.08;;;14.60;96.20;;;;;;5076469;28;20032;-77
2022/04/09 00:07:52;;;;;;;12.00;3.08;;;14.70;94.30;;;;;;5076681;28;20027;-78
2022/04/09 00:10:18;;;;;;;8.05;2.80;;;14.80;94.20;;;;;;5076373;28;20467;-77
2022/04/09 00:12:46;;;;;;;10.20;3.70;;;14.80;94.30;;;;;;5076357;28;20032;-77
2022/04/09 00:15:12;;;;;;;6.78;2.55;;;14.90;94.30;;;;;;5076484;28;20103;-77
2022/04/09 00:17:41;;;;;;;5.28;2.35;;;14.90;93.70;;;;;;5076084;28;20481;-77
2022/04/09 00:20:08;;;;;;;7.93;3.13;;;14.90;93.70;;;;;;5058228;28;20030;-77
2022/04/09 00:22:35;;;;;;;8.95;3.65;;;15.00;94.00;;;;;;5076100;28;20025;-77
2022/04/09 00:25:01;;;;;;;8.48;3.78;;;15.00;92.80;;;;;;5076054;28;20028;-77
2022/04/09 00:27:27;;;;;;;11.02;4.80;;;15.00;92.50;;;;;;5076074;28;20028;-77
2022/04/09 00:29:53;;;;;;;9.10;3.75;;;15.00;92.80;;;;;;5076090;28;20443;-77
2022/04/09 00:32:19;;;;;;;9.63;3.50;;;15.00;93.70;;;;;;5075989;28;20048;-78
2022/04/09 00:34:45;;;;;;;8.48;3.80;;;14.90;93.20;;;;;;5057892;28;20085;-77
2022/04/09 00:37:11;;;;;;;8.20;3.15;;;14.90;94.00;;;;;;5076044;28;20111;-77
2022/04/09 00:39:36;;;;;;;7.30;2.90;;;14.90;93.40;;;;;;5058104;28;20020;-76
2022/04/09 00:42:02;;;;;;;8.70;2.58;;;15.00;92.50;;;;;;5076081;28;20024;-77
2022/04/09 00:44:28;;;;;;;9.13;2.90;;;15.10;91.90;;;;;;5075947;28;20033;-77
2022/04/09 00:46:54;;;;;;;8.63;3.10;;;15.10;92.40;;;;;;5057814;28;20031;-78
2022/04/09 00:49:20;;;;;;;7.95;3.40;;;15.10;92.20;;;;;;5075623;28;20031;-77
2022/04/09 00:51:47;;;;;;;11.82;3.15;;;15.10;92.40;;;;;;5075912;28;20029;-77
2022/04/09 00:54:14;;;;;;;9.65;3.30;;;15.10;92.50;;;;;;5075499;28;20025;-77
2022/04/09 00:56:41;;;;;;;13.80;4.03;;;15.10;92.90;;;;;;5057827;28;20399;-77
2022/04/09 00:59:10;;;;;;;9.43;3.00;;;15.10;93.00;;;;;;5075072;28;20048;-77
2022/04/09 01:01:38;;;;;;;9.57;3.08;;;15.10;93.50;;;;;;5075411;28;20074;-77
2022/04/09 01:04:11;;;;;;;10.13;3.28;;;15.10;93.70;;;;;;5075610;28;20486;-77
2022/04/09 01:06:38;;;;;;;6.63;2.78;;;15.10;94.30;;;;;;5075731;28;20074;-77
2022/04/09 01:09:05;;;;;;;10.02;3.58;;;15.10;94.10;;;;;;5075571;28;20028;-77
2022/04/09 01:11:32;;;;;;;8.52;2.90;;;15.00;95.10;;;;;;5075047;28;20029;-77
2022/04/09 01:13:58;;;;;;;7.35;2.88;;;15.00;94.60;;;;;;5075367;28;20032;-76
2022/04/09 01:16:28;;;;;;;9.93;3.33;;;15.00;95.00;;;;;;5075102;28;20029;-77
2022/04/09 01:18:58;;;;;;;9.95;3.53;;;15.00;95.30;;;;;;5075470;28;20034;-77
2022/04/09 01:21:25;;;;;;;9.73;3.10;;;14.90;95.80;;;;;;5075255;28;20056;-77
2022/04/09 01:23:51;;;;;;;8.60;3.22;;;14.90;95.60;;;;;;5074573;28;20036;-77
2022/04/09 01:26:18;;;;;;;6.80;3.03;;;14.90;96.60;;;;;;5074546;28;20077;-77
2022/04/09 01:28:44;;;;;;;10.02;3.00;;;14.80;96.90;;;;;;5075131;28;20402;-77
2022/04/09 01:31:10;;;;;;;9.40;3.17;;;14.80;98.00;;;;;;5074518;28;20093;-76
2022/04/09 01:33:37;;;;;;;7.45;2.45;;;14.80;98.50;;;;;;5074614;28;20360;-76
2022/04/09 01:36:03;;;;;;;13.98;4.05;;;14.70;99.20;;;;;;5074926;28;20021;-76
2022/04/09 01:38:29;;;;;;;18.92;7.40;;;14.70;99.20;;;;;;5057103;28;20375;-77
2022/04/09 01:40:55;;;;;;;12.52;5.53;;;14.70;99.40;;;;;;5074748;28;20456;-77
2022/04/09 01:43:23;;;;;;;11.73;4.57;;;14.60;99.80;;;;;;5074735;28;20040;-76
2022/04/09 01:45:49;;;;;;;14.30;4.03;;;14.60;99.90;;;;;;5056695;28;20028;-77
2022/04/09 01:48:14;;;;;;;12.27;4.00;;;14.50;99.90;;;;;;5074619;28;20035;-77
2022/04/09 01:50:40;;;;;;;10.35;4.50;;;14.40;99.90;;;;;;5074465;28;20448;-77
2022/04/09 01:53:06;;;;;;;7.65;3.97;;;14.40;99.90;;;;;;5074600;28;20028;-78
2022/04/09 01:55:35;;;;;;;12.73;4.40;;;14.30;99.90;;;;;;5074618;28;20033;-77
2022/04/09 01:58:01;;;;;;;10.00;4.43;;;14.20;99.90;;;;;;5073497;28;20495;-77
2022/04/09 02:00:27;;;;;;;9.38;4.50;;;14.20;99.90;;;;;;5056393;28;20025;-77
2022/04/09 02:02:53;;;;;;;11.90;4.43;;;14.10;99.90;;;;;;5074398;28;20062;-77
2022/04/09 02:05:19;;;;;;;10.82;4.30;;;14.00;99.90;;;;;;5074127;28;20024;-78
2022/04/09 02:07:47;;;;;;;11.48;4.65;;;14.00;99.90;;;;;;5074333;28;20032;-77
2022/04/09 02:10:14;;;;;;;11.07;3.92;;;13.90;99.90;;;;;;5074297;28;20070;-77
2022/04/09 02:12:39;;;;;;;10.25;3.47;;;13.90;99.90;;;;;;5074210;28;20024;-77
2022/04/09 02:15:08;;;;;;;10.88;4.07;;;13.90;99.90;;;;;;5074121;28;20089;-77
2022/04/09 02:17:38;;;;;;;12.95;4.45;;;13.80;99.90;;;;;;5074146;28;20024;-77
2022/04/09 02:20:09;;;;;;;17.67;5.38;;;13.80;99.90;;;;;;5073981;28;20020;-77
2022/04/09 02:22:36;;;;;;;14.07;5.03;;;14.00;99.90;;;;;;5074030;28;20025;-78
2022/04/09 02:25:06;;;;;;;10.70;4.00;;;14.10;99.90;;;;;;5056075;28;20346;-77
2022/04/09 02:27:32;;;;;;;10.43;2.75;;;14.10;99.90;;;;;;5073823;28;20379;-78
2022/04/09 02:29:58;;;;;;;12.70;2.50;;;14.20;99.90;;;;;;5073637;28;20028;-77
2022/04/09 02:32:24;;;;;;;6.07;2.05;;;14.40;99.90;;;;;;5055815;28;20032;-77
2022/04/09 02:34:53;;;;;;;8.77;2.22;;;14.60;99.90;;;;;;5056015;28;20033;-78
2022/04/09 02:37:20;;;;;;;8.77;2.30;;;14.60;99.90;;;;;;5073899;28;20024;-77
2022/04/09 02:39:46;;;;;;;5.57;2.10;;;14.80;99.90;;;;;;5073997;28;20032;-79
2022/04/09 02:42:12;;;;;;;6.13;2.67;;;14.90;99.90;;;;;;5074126;28;20078;-78
2022/04/09 02:44:39;;;;;;;7.97;2.90;;;14.90;99.90;;;;;;5073689;28;20032;-77
2022/04/09 02:47:05;;;;;;;9.18;2.60;;;14.80;99.90;;;;;;5073783;28;20029;-78
2022/04/09 02:49:31;;;;;;;9.27;2.33;;;14.80;99.90;;;;;;5073701;28;20063;-78
2022/04/09 02:51:57;;;;;;;10.15;2.97;;;14.80;99.90;;;;;;5056156;28;20510;-77
2022/04/09 02:54:23;;;;;;;13.57;3.55;;;14.70;99.90;;;;;;5073568;28;20488;-77
2022/04/09 02:56:49;;;;;;;11.80;2.72;;;14.70;99.90;;;;;;5073626;28;20070;-77
2022/04/09 02:59:15;;;;;;;10.18;2.60;;;14.60;99.90;;;;;;5073785;28;20047;-77
2022/04/09 03:01:43;;;;;;;12.20;2.72;;;14.70;99.90;;;;;;5073606;28;20103;-77
2022/04/09 03:04:09;;;;;;;14.23;3.42;;;14.70;99.90;;;;;;5055446;28;20040;-78
2022/04/09 03:06:35;;;;;;;12.45;4.50;;;14.60;99.90;;;;;;5074032;28;20398;-79
2022/04/09 03:09:01;;;;;;;12.38;5.10;;;14.50;99.90;;;;;;5073137;28;20025;-77
2022/04/09 03:11:27;;;;;;;13.00;4.60;;;14.30;99.90;;;;;;5076215;28;20024;-77
2022/04/09 03:13:53;;;;;;;15.57;3.38;;;14.20;99.90;;;;;;5077628;28;20028;-77
2022/04/09 03:16:19;;;;;;;10.55;4.03;;;14.10;99.90;;;;;;5077551;28;20114;-78
2022/04/09 03:18:44;;;;;;;7.50;2.83;;;14.00;99.90;;;;;;5077505;28;20052;-77
2022/04/09 03:21:10;;;;;;;13.65;2.90;;;13.90;99.90;;;;;;5077575;28;20105;-77
2022/04/09 03:23:36;;;;;;;13.20;3.55;;;13.70;99.90;;;;;;5077498;28;20036;-77
2022/04/09 03:26:02;;;;;;;9.30;3.10;;;13.70;99.90;;;;;;5077326;28;20028;-77
2022/04/09 03:28:27;;;;;;;9.93;3.47;;;13.60;99.90;;;;;;5077249;28;20027;-79
2022/04/09 03:30:53;;;;;;;9.95;2.40;;;13.60;99.90;;;;;;5059427;28;20025;-77
2022/04/09 03:33:19;;;;;;;8.30;2.72;;;13.60;99.90;;;;;;5076914;28;20410;-77
2022/04/09 03:35:47;;;;;;;10.52;3.13;;;13.60;99.90;;;;;;5077416;28;20037;-77
2022/04/09 03:38:13;;;;;;;12.27;3.13;;;13.60;99.90;;;;;;5076954;28;20411;-79
2022/04/09 03:40:40;;;;;;;9.25;3.42;;;13.70;99.90;;;;;;5077348;28;20363;-79
2022/04/09 03:43:06;;;;;;;10.18;4.00;;;13.60;99.90;;;;;;5077044;28;20086;-77
2022/04/09 03:45:32;;;;;;;21.08;4.93;;;13.60;99.90;;;;;;5076956;28;20025;-76
2022/04/09 03:47:58;;;;;;;18.48;4.13;;;13.80;99.90;;;;;;5077035;28;20020;-76
2022/04/09 03:50:23;;;;;;;9.60;3.30;;;13.80;99.90;;;;;;5076723;28;20090;-77
2022/04/09 03:52:49;;;;;;;11.25;3.15;;;14.00;99.90;;;;;;5076789;28;20077;-76
2022/04/09 03:55:15;;;;;;;11.98;4.78;;;14.00;99.90;;;;;;5076892;28;20029;-77
2022/04/09 03:57:41;;;;;;;10.18;4.85;;;14.20;99.90;;;;;;5076639;28;20063;-77
2022/04/09 04:00:09;;;;;;;13.23;4.78;;;14.30;99.90;;;;;;5076753;28;20085;-77
2022/04/09 04:02:35;;;;;;;13.80;4.13;;;14.50;99.90;;;;;;5076741;28;20032;-77
2022/04/09 04:05:03;;;;;;;13.52;3.70;;;14.50;99.90;;;;;;5076452;28;20052;-77
2022/04/09 04:07:30;;;;;;;13.15;3.17;;;14.50;99.90;;;;;;5076583;28;20021;-77
2022/04/09 04:10:01;;;;;;;10.55;3.50;;;14.50;99.90;;;;;;5076602;28;20020;-77
2022/04/09 04:12:28;;;;;;;10.88;2.70;;;14.50;99.90;;;;;;5076711;28;20024;-78
2022/04/09 04:14:54;;;;;;;10.07;2.42;;;14.50;99.90;;;;;;5076115;28;20020;-77
2022/04/09 04:17:20;;;;;;;15.40;2.97;;;14.50;99.90;;;;;;5076218;28;20078;-77
2022/04/09 04:19:46;;;;;;;9.70;3.45;;;14.50;99.90;;;;;;5076237;28;20032;-77
2022/04/09 04:22:11;;;;;;;17.23;3.63;;;14.50;99.90;;;;;;5075688;28;20176;-78
2022/04/09 04:24:37;;;;;;;10.43;2.63;;;14.40;99.90;;;;;;5076085;28;20033;-77
2022/04/09 04:27:07;;;;;;;7.45;2.70;;;14.40;99.90;;;;;;5076199;28;20028;-77
2022/04/09 04:29:34;;;;;;;11.15;3.47;;;14.30;99.90;;;;;;5075862;28;20025;-78
2022/04/09 04:32:00;;;;;;;6.97;2.63;;;14.30;99.90;;;;;;5058371;28;20371;-77
2022/04/09 04:34:26;;;;;;;11.85;2.78;;;14.20;99.90;;;;;;5058105;28;20039;-78
2022/04/09 04:36:52;;;;;;;8.23;2.75;;;14.30;99.90;;;;;;5076118;28;20020;-77
2022/04/09 04:39:18;;;;;;;9.45;3.35;;;14.20;99.90;;;;;;5076247;28;20037;-78
2022/04/09 04:41:44;;;;;;;17.23;6.70;;;14.30;99.90;;;;;;5075681;28;20085;-78
2022/04/09 04:44:12;;;;;;;21.83;7.63;;;14.30;99.90;;;;;;5075913;28;20036;-78
2022/04/09 04:46:39;;;;;;;21.08;6.72;;;14.30;99.90;;;;;;5075499;28;20126;-78
2022/04/09 04:49:05;;;;;;;17.00;7.05;;;14.30;99.90;;;;;;5075743;28;20020;-78
2022/04/09 04:51:31;;;;;;;25.80;9.38;;;14.30;99.90;;;;;;5075620;28;20535;-78
2022/04/09 04:53:58;;;;;;;26.35;11.60;;;14.40;99.90;;;;;;5075624;28;20490;-77
2022/04/09 04:56:24;;;;;;;26.90;11.05;;;14.40;99.90;;;;;;5075710;28;20056;-78
2022/04/09 04:58:51;;;;;;;21.05;6.47;;;14.50;99.90;;;;;;5078745;28;20384;-77
2022/04/09 05:01:16;;;;;;;10.88;3.67;;;14.60;99.90;;;;;;5095831;28;20035;-78
2022/04/09 05:03:42;;;;;;;9.27;3.58;;;15.00;99.90;;;;;;5095714;28;20114;-77
2022/04/09 05:06:08;;;;;;;13.65;3.70;;;15.30;99.90;;;;;;5095528;28;20030;-78
2022/04/09 05:08:34;;;;;;;12.05;3.33;;;15.50;99.90;;;;;;5095587;28;20032;-77
2022/04/09 05:10:59;;;;;;;13.35;3.65;;;15.70;99.90;;;;;;5095622;28;20027;-77
2022/04/09 05:13:25;;;;;;;11.20;3.55;;;15.80;99.20;;;;;;5095872;28;20489;-78
2022/04/09 05:15:51;;;;;;;13.45;4.10;;;15.90;98.20;;;;;;5095332;28;20032;-78
2022/04/09 05:18:17;;;;;;;14.95;4.93;;;16.00;97.20;;;;;;5095238;28;20099;-77
2022/04/09 05:20:42;;;;;;;14.10;4.20;;;16.10;96.10;;;;;;5095720;28;20023;-78
2022/04/09 05:23:08;;;;;;;5.85;2.78;;;16.20;95.00;;;;;;5093919;28;20039;-78
2022/04/09 05:25:34;;;;;;;8.50;2.53;;;16.30;95.00;;;;;;5095647;28;20028;-77
2022/04/09 05:28:04;;;;;;;8.70;2.50;;;16.30;94.00;;;;;;5094851;28;20020;-78
2022/04/09 05:30:31;;;;;;;10.93;3.08;;;16.50;93.60;;;;;;5095406;28;20020;-77
2022/04/09 05:32:57;;;;;;;6.30;2.55;;;16.50;93.70;;;;;;5094855;28;20055;-78
2022/04/09 05:35:23;;;;;;;18.75;3.20;;;16.50;92.90;;;;;;5095182;28;20443;-79
2022/04/09 05:37:50;;;;;;;11.48;3.03;;;16.50;93.20;;;;;;5094843;28;20510;-78
2022/04/09 05:40:16;;;;;;;16.60;3.78;;;16.60;92.20;;;;;;5095196;28;20028;-79
2022/04/09 05:42:42;;;;;;;9.18;3.08;;;16.60;91.90;;;;;;5094897;28;20459;-79
2022/04/09 05:45:09;;;;;;;11.85;3.33;;;16.70;92.20;;;;;;5093680;28;20031;-78
2022/04/09 05:47:39;;;;;;;11.10;3.60;;;16.70;92.20;;;;;;5095136;28;20058;-78
2022/04/09 05:50:05;;;;;;;6.13;3.47;;;16.70;92.30;;;;;;5093514;28;20367;-78
2022/04/09 05:52:31;;;;;;;11.88;4.25;;;16.70;92.70;;;;;;5093525;28;20382;-79
2022/04/09 05:54:57;;;;;;;13.23;3.72;;;16.70;91.90;;;;;;5094643;28;20111;-79
2022/04/09 05:57:23;;;;;;;13.80;3.95;;;16.70;92.60;;;;;;5093974;28;20028;-78
2022/04/09 05:59:48;;;;;;;10.88;3.78;;;16.80;93.50;;;;;;5074179;28;20380;-79
2022/04/09 06:02:14;;;;;;;12.65;3.97;;;16.80;94.40;;;;;;5074475;28;20528;-80
2022/04/09 06:04:40;;;;;;;10.07;3.55;;;16.80;95.10;;;;;;5074221;28;20044;-78
2022/04/09 06:07:06;;;;;;;11.63;3.38;;;16.90;93.90;;;;;;5074002;28;20028;-77
2022/04/09 06:09:32;;;;;;;9.45;3.70;;;17.00;93.00;;;;;;5074105;28;20025;-77
2022/04/09 06:11:57;;;;;;;10.93;3.60;;;17.10;92.10;;;;;;5056271;28;20410;-78
2022/04/09 06:14:23;;;;;;;11.77;4.10;;;17.30;92.30;;;;;;5074407;28;20063;-78
2022/04/09 06:16:50;;;;;;;13.35;4.13;;;17.40;90.80;;;;;;5073796;28;20020;-78
2022/04/09 06:19:15;;;;;;;13.60;3.92;;;17.40;89.00;;;;;;5074258;28;20036;-79
2022/04/09 06:21:41;;;;;;;14.90;4.10;;;17.50;87.10;;;;;;5056077;28;20025;-78
2022/04/09 06:24:07;;;;;;;13.52;4.65;;;17.60;89.00;;;;;;5055885;28;20115;-77
2022/04/09 06:26:33;;;;;;;14.98;4.40;;;17.70;87.90;;;;;;5074314;28;20031;-78
2022/04/09 06:28:59;;;;;;;8.77;3.42;;;17.80;86.80;;;;;;5074058;28;20455;-79
2022/04/09 06:31:24;;;;;;;12.27;4.18;;;17.80;84.50;;;;;;5074097;28;20033;-77
2022/04/09 06:33:50;;;;;;;16.35;4.03;;;18.00;85.30;;;;;;5073528;28;20029;-76
2022/04/09 06:36:16;;;;;;;10.07;3.28;;;18.00;84.60;;;;;;5074001;28;20513;-77
2022/04/09 06:38:42;;;;;;;11.50;3.67;;;18.00;84.60;;;;;;5056195;28;20430;-77
2022/04/09 06:41:07;;;;;;;10.40;3.42;;;18.20;84.30;;;;;;5073810;28;20452;-78
2022/04/09 06:43:33;;;;;;;8.90;3.58;;;18.30;84.40;;;;;;5073802;28;20032;-77
2022/04/09 06:45:59;;;;;;;13.43;3.65;;;18.30;84.20;;;;;;5073427;28;20060;-77
2022/04/09 06:48:24;;;;;;;11.85;3.97;;;18.30;80.80;;;;;;5073428;28;20024;-77
2022/04/09 06:50:50;;;;;;;10.88;3.30;;;18.40;81.60;;;;;;5073533;28;20032;-76
2022/04/09 06:53:16;;;;;;;14.20;4.10;;;18.40;80.00;;;;;;5073343;28;20031;-77
2022/04/09 06:55:42;;;;;;;12.50;3.45;;;18.40;80.50;;;;;;5073628;28;20032;-76
2022/04/09 06:58:08;;;;;;;14.70;4.45;;;18.40;79.60;;;;;;5073419;28;20087;-77
2022/04/09 07:00:33;;;;;;;9.68;2.78;;;18.50;80.30;;;;;;5073204;28;20036;-77
2022/04/09 07:03:02;;;;;;;11.18;3.20;;;18.50;77.90;;;;;;5073547;28;20081;-76
2022/04/09 07:05:28;;;;;;;8.38;3.35;;;18.60;77.80;;;;;;5073449;28;20067;-76
2022/04/09 07:07:54;;;;;;;7.65;3.08;;;18.70;79.30;;;;;;5073648;28;20052;-76
2022/04/09 07:10:20;;;;;;;12.00;3.20;;;18.90;78.60;;;;;;5073597;28;20375;-77
2022/04/09 07:12:46;;;;;;;16.30;4.55;;;19.00;76.00;;;;;;5073099;28;20028;-76
2022/04/09 07:15:12;;;;;;;7.72;3.20;;;19.20;76.20;;;;;;5055559;28;20029;-76
2022/04/09 07:17:38;;;;;;;19.33;3.90;;;19.20;74.20;;;;;;5055202;28;20360;-76
2022/04/09 07:20:10;;;;;;;11.70;3.00;;;19.60;74.60;;;;;;5073319;28;20032;-77
2022/04/09 07:22:37;;;;;;;10.40;3.15;;;19.50;71.80;;;;;;5073629;28;20050;-76
2022/04/09 07:25:05;;;;;;;13.13;3.55;;;19.80;72.00;;;;;;5073511;28;20040;-76
2022/04/09 07:27:41;;;;;;;11.88;4.63;;;19.80;70.20;;;;;;5073090;28;20036;-76
2022/04/09 07:30:20;;;;;;;12.23;3.40;;;20.00;70.50;;;;;;5073377;28;20029;-76
2022/04/09 07:32:47;;;;;;;10.57;3.70;;;20.20;67.80;;;;;;5064119;28;20096;-75
2022/04/09 07:35:16;;;;;;;17.67;5.82;;;20.20;66.90;;;;;;5046416;28;20033;-75
2022/04/09 07:37:45;;;;;;;16.85;5.55;;;20.10;65.30;;;;;;5073193;28;20047;-76
2022/04/09 07:40:13;;;;;;;15.73;5.95;;;20.10;64.80;;;;;;5072389;28;20028;-76
2022/04/09 07:42:40;;;;;;;18.63;6.10;;;20.00;64.10;;;;;;5064616;28;20032;-74
2022/04/09 07:45:07;;;;;;;18.08;5.43;;;20.10;64.60;;;;;;5063545;28;20078;-75
2022/04/09 07:47:33;;;;;;;10.90;5.05;;;20.10;63.40;;;;;;5068682;28;20103;-75
2022/04/09 07:50:00;;;;;;;10.90;3.30;;;20.30;63.10;;;;;;5073170;28;20032;-75
2022/04/09 07:52:27;;;;;;;10.68;3.38;;;20.30;63.20;;;;;;5069739;28;20024;-75
2022/04/09 07:54:56;;;;;;;15.63;4.40;;;20.30;61.90;;;;;;5071839;28;20029;-75
2022/04/09 07:57:24;;;;;;;17.27;7.68;;;20.20;62.10;;;;;;5072901;28;20032;-75
2022/04/09 07:59:49;;;;;;;18.77;6.60;;;20.60;63.60;;;;;;5058139;28;20028;-75
2022/04/09 08:02:15;;;;;;;10.65;4.82;;;21.10;63.10;;;;;;5076387;28;20352;-75
2022/04/09 08:04:41;;;;;;;9.40;3.85;;;21.30;61.60;;;;;;5076021;28;20039;-76
2022/04/09 08:07:06;;;;;;;12.10;4.57;;;21.40;59.40;;;;;;5058682;28;20511;-76
2022/04/09 08:09:32;;;;;;;8.48;4.05;;;21.60;60.00;;;;;;5076419;28;20032;-76
2022/04/09 08:11:58;;;;;;;10.93;3.60;;;21.40;59.60;;;;;;5076473;28;20025;-75
2022/04/09 08:14:25;;;;;;;15.93;6.55;;;21.30;58.70;;;;;;5076818;28;20439;-74
2022/04/09 08:16:51;;;;;;;64.72;28.75;;;21.70;59.40;;;;;;5076288;28;20020;-76
2022/04/09 08:19:18;;;;;;;40.53;18.13;;;22.20;59.70;;;;;;5076488;28;20485;-76
2022/04/09 08:21:44;;;;;;;30.88;14.25;;;22.00;58.50;;;;;;5076456;28;20094;-76
2022/04/09 08:24:11;;;;;;;15.45;7.60;;;22.20;58.50;;;;;;5075768;28;20112;-76
2022/04/09 08:26:37;;;;;;;14.00;6.97;;;22.30;55.60;;;;;;5076240;28;20031;-77
2022/04/09 08:29:04;;;;;;;23.50;13.30;;;22.40;54.80;;;;;;5076305;28;20028;-77
2022/04/09 08:31:30;;;;;;;26.90;13.40;;;22.20;54.80;;;;;;5076029;28;20050;-75
2022/04/09 08:33:56;;;;;;;25.80;13.82;;;22.00;53.90;;;;;;5075828;28;20033;-75
2022/04/09 08:36:22;;;;;;;9.75;4.07;;;22.00;54.50;;;;;;5075944;28;20028;-75
2022/04/09 08:38:48;;;;;;;27.65;12.27;;;22.00;53.30;;;;;;5076121;28;20024;-75
2022/04/09 08:41:18;;;;;;;16.48;8.65;;;22.20;53.80;;;;;;5075708;28;20063;-74
2022/04/09 08:43:44;;;;;;;12.00;5.15;;;22.30;53.60;;;;;;5076043;28;20039;-75
2022/04/09 08:46:10;;;;;;;12.75;7.68;;;22.30;54.70;;;;;;5075721;28;20438;-76
2022/04/09 08:48:38;;;;;;;10.48;3.13;;;22.00;53.40;;;;;;5075841;28;20029;-77
2022/04/09 08:51:03;;;;;;;8.52;3.17;;;21.80;53.10;;;;;;5075690;28;20020;-76
2022/04/09 08:53:29;;;;;;;8.63;3.55;;;21.70;54.00;;;;;;5057766;28;20028;-76
2022/04/09 08:55:55;;;;;;;7.85;4.10;;;21.70;56.30;;;;;;5076044;28;20036;-75
2022/04/09 08:58:21;;;;;;;8.35;2.70;;;21.60;54.50;;;;;;5075395;28;20123;-76
2022/04/09 09:00:48;;;;;;;10.90;3.25;;;21.70;54.50;;;;;;5075762;28;20060;-76
2022/04/09 09:03:15;;;;;;;11.55;3.25;;;21.90;54.00;;;;;;5075714;28;20040;-75
2022/04/09 09:05:42;;;;;;;8.32;3.40;;;21.90;53.10;;;;;;5075447;28;20095;-75
2022/04/09 09:08:10;;;;;;;9.48;3.40;;;22.00;51.40;;;;;;5075390;28;20075;-75
2022/04/09 09:10:37;;;;;;;8.05;3.67;;;22.00;53.20;;;;;;5075571;28;20573;-76
2022/04/09 09:13:13;;;;;;;12.65;4.40;;;22.30;51.80;;;;;;5075018;28;20056;-76
2022/04/09 09:15:46;;;;;;;7.38;3.75;;;22.70;51.40;;;;;;5075478;28;20024;-75
2022/04/09 09:18:19;;;;;;;9.60;4.38;;;22.90;49.80;;;;;;5075487;28;20120;-76
2022/04/09 09:20:59;;;;;;;9.77;3.05;;;22.90;51.40;;;;;;5075050;28;20074;-76
2022/04/09 09:23:27;;;;;;;9.18;2.80;;;23.10;50.40;;;;;;5074985;28;20056;-76
2022/04/09 09:25:55;;;;;;;8.20;3.17;;;23.00;48.70;;;;;;5056857;28;20028;-75
2022/04/09 09:28:24;;;;;;;9.10;3.72;;;23.00;48.70;;;;;;5074994;28;20099;-76
2022/04/09 09:30:50;;;;;;;7.88;2.75;;;23.20;49.60;;;;;;5074613;28;20074;-76
2022/04/09 09:33:16;;;;;;;11.77;5.13;;;23.20;48.20;;;;;;5074422;28;20090;-77
2022/04/09 09:35:54;;;;;;;12.70;5.55;;;23.30;47.50;;;;;;5074705;28;20024;-77
2022/04/09 09:38:23;;;;;;;11.60;4.50;;;23.30;47.10;;;;;;5074908;28;20028;-77
2022/04/09 09:40:49;;;;;;;8.05;3.13;;;23.10;47.60;;;;;;5074451;28;20467;-76
2022/04/09 09:43:19;;;;;;;13.68;4.32;;;23.00;48.20;;;;;;5074750;28;20041;-77
2022/04/09 09:45:47;;;;;;;7.88;3.70;;;23.00;48.40;;;;;;5074626;28;20044;-75
2022/04/09 09:48:29;;;;;;;8.63;3.25;;;22.90;45.90;;;;;;5074077;28;20024;-76
2022/04/09 09:50:57;;;;;;;14.40;4.65;;;22.70;47.80;;;;;;5074173;28;20028;-77
2022/04/09 09:53:27;;;;;;;10.73;3.92;;;22.70;47.60;;;;;;5073945;28;20364;-75
2022/04/09 09:55:52;;;;;;;14.75;4.88;;;22.50;47.40;;;;;;5074403;28;20073;-75
2022/04/09 09:58:21;;;;;;;7.53;3.30;;;22.50;48.70;;;;;;5074178;28;20052;-76
2022/04/09 10:00:47;;;;;;;13.50;4.68;;;22.40;47.80;;;;;;5074381;28;20047;-77
2022/04/09 10:03:14;;;;;;;7.10;3.67;;;22.30;48.90;;;;;;5073947;28;20389;-75
2022/04/09 10:05:43;;;;;;;7.93;3.47;;;22.30;47.60;;;;;;5074118;28;20452;-75
2022/04/09 10:08:09;;;;;;;10.18;3.80;;;22.30;47.90;;;;;;5073923;28;20039;-74
2022/04/09 10:10:38;;;;;;;9.13;3.65;;;22.10;48.70;;;;;;5073884;28;20068;-76
2022/04/09 10:13:04;;;;;;;11.63;4.00;;;22.30;49.10;;;;;;5056218;28;20367;-76
2022/04/09 10:15:31;;;;;;;14.95;4.47;;;22.50;48.20;;;;;;5073570;28;20024;-76
2022/04/09 10:18:00;;;;;;;10.63;4.13;;;23.00;47.00;;;;;;5073916;28;20028;-76
2022/04/09 10:20:29;;;;;;;8.75;3.60;;;23.30;47.60;;;;;;5073482;28;20025;-76
2022/04/09 10:22:58;;;;;;;11.95;3.80;;;23.60;47.30;;;;;;5055735;28;20424;-74
2022/04/09 10:25:28;;;;;;;19.40;4.10;;;23.60;47.00;;;;;;5073846;28;20059;-75
2022/04/09 10:28:00;;;;;;;9.00;4.32;;;23.50;46.20;;;;;;5073661;28;20031;-76
2022/04/09 10:30:26;;;;;;;16.20;4.57;;;23.80;46.40;;;;;;5073792;28;20119;-76
2022/04/09 10:32:59;;;;;;;8.95;3.60;;;23.80;46.30;;;;;;5073393;28;20033;-75
2022/04/09 10:35:38;;;;;;;12.60;3.90;;;23.70;45.80;;;;;;5073581;28;20123;-75
2022/04/09 10:38:07;;;;;;;9.05;4.03;;;23.80;47.10;;;;;;5072864;28;20127;-75
2022/04/09 10:40:34;;;;;;;8.70;3.45;;;23.80;46.20;;;;;;5073053;28;20059;-76
2022/04/09 10:43:01;;;;;;;7.78;4.03;;;24.10;44.20;;;;;;5073141;28;20016;-75
2022/04/09 10:45:30;;;;;;;9.32;4.30;;;24.30;44.40;;;;;;5055332;28;20035;-76
2022/04/09 10:48:07;;;;;;;9.27;4.35;;;;;;;;;;5073678;28;20033;-76
2022/04/09 10:51:12;;;;;;;8.85;4.93;;;24.40;42.20;;;;;;5073420;28;20012;-76
2022/04/09 10:53:49;;;;;;;10.20;4.45;;;24.20;42.70;;;;;;4972361;28;20050;-77
2022/04/09 10:56:21;;;;;;;12.70;4.57;;;23.80;43.40;;;;;;4956492;28;20443;-77
2022/04/09 10:59:01;;;;;;;;;;;23.80;42.40;;;;;;4995466;28;20144;-78
2022/04/09 11:01:49;;;;;;;9.25;4.10;;;24.20;43.20;;;;;;5011257;28;20008;-76
2022/04/09 11:04:34;;;;;;;8.88;4.00;;;24.10;42.80;;;;;;5011361;28;20042;-75
2022/04/09 11:07:10;;;;;;;10.35;3.83;;;23.60;42.80;;;;;;5007900;28;20022;-75
2022/04/09 11:09:59;;;;;;;7.45;4.32;;;23.60;43.50;;;;;;4983358;28;20100;-76
2022/04/09 11:12:38;;;;;;;12.30;5.00;;;23.30;42.90;;;;;;5001772;28;20029;-75
2022/04/09 11:15:06;;;;;;;9.43;4.30;;;23.10;42.50;;;;;;4998939;28;20488;-75
2022/04/09 11:17:33;;;;;;;15.88;4.63;;;23.00;42.50;;;;;;5000111;28;20026;-76
2022/04/09 11:20:12;;;;;;;10.27;4.90;;;23.10;43.00;;;;;;5001258;28;20064;-76
2022/04/09 11:22:39;;;;;;;11.02;4.70;;;23.50;42.70;;;;;;5000656;28;20093;-77
2022/04/09 11:25:07;;;;;;;9.02;3.80;;;23.40;43.30;;;;;;4997996;28;20030;-77
2022/04/09 11:27:33;;;;;;;9.88;3.72;;;23.20;41.80;;;;;;4991845;28;20037;-76
2022/04/09 11:30:00;;;;;;;12.48;3.97;;;23.10;42.50;;;;;;5075512;28;20036;-75
2022/04/09 11:32:27;;;;;;;8.48;2.85;;;23.00;42.50;;;;;;5075251;28;20501;-76
2022/04/09 11:34:57;;;;;;;11.02;3.63;;;22.60;43.60;;;;;;5075617;28;20032;-76
2022/04/09 11:37:26;;;;;;;13.95;3.28;;;22.60;43.10;;;;;;5077187;28;20078;-75
2022/04/09 11:39:53;;;;;;;6.65;2.92;;;22.50;42.80;;;;;;5076868;28;20020;-75
2022/04/09 11:42:19;;;;;;;22.17;9.18;;;22.40;43.30;;;;;;5076629;28;20044;-74
2022/04/09 11:44:45;;;;;;;20.83;5.68;;;22.30;44.80;;;;;;5077069;28;20032;-76
2022/04/09 11:47:22;;;;;;;11.70;5.07;;;22.30;44.30;;;;;;5076685;28;20032;-76
2022/04/09 11:49:48;;;;;;;14.40;6.18;;;22.20;45.00;;;;;;5076625;28;20021;-75
2022/04/09 11:52:26;;;;;;;9.75;3.05;;;22.30;45.20;;;;;;5077642;28;20059;-75
2022/04/09 11:54:51;;;;;;;6.53;3.20;;;22.20;45.70;;;;;;5085089;28;20317;-75
2022/04/09 11:57:17;;;;;;;9.35;3.17;;;22.10;45.20;;;;;;5084311;28;20466;-75
2022/04/09 11:59:53;;;;;;;7.07;2.75;;;22.10;45.00;;;;;;5065907;28;20040;-76
2022/04/09 12:02:24;;;;;;;10.07;4.22;;;22.10;45.50;;;;;;5048407;28;20032;-76
2022/04/09 12:04:51;;;;;;;11.48;3.53;;;22.00;45.10;;;;;;5047827;28;20044;-75
2022/04/09 12:07:18;;;;;;;10.75;3.30;;;22.00;45.00;;;;;;5045890;28;20547;-76
2022/04/09 12:09:45;;;;;;;11.00;3.28;;;21.90;45.20;;;;;;5065216;28;20025;-76
2022/04/09 12:12:11;;;;;;;11.00;3.30;;;21.80;45.10;;;;;;5065088;28;20021;-77
2022/04/09 12:14:39;;;;;;;8.98;3.33;;;21.80;45.10;;;;;;5062546;28;20074;-75
2022/04/09 12:17:15;;;;;;;10.18;3.47;;;21.70;45.00;;;;;;5064910;28;20383;-75
2022/04/09 12:19:44;;;;;;;12.85;3.00;;;21.80;45.80;;;;;;5064032;28;20353;-74
2022/04/09 12:22:19;;;;;;;12.13;2.80;;;21.90;45.70;;;;;;5064158;28;20027;-74
2022/04/09 12:24:56;;;;;;;11.18;2.90;;;22.00;45.50;;;;;;5065423;28;20033;-74
2022/04/09 12:27:44;;;;;;;8.30;3.35;;;22.00;46.00;;;;;;5065097;28;20415;-75
2022/04/09 12:30:14;;;;;;;13.23;3.03;;;22.10;45.50;;;;;;5064204;28;20051;-76
2022/04/09 12:32:41;;;;;;;7.35;2.38;;;22.10;44.40;;;;;;5065787;28;20020;-76
2022/04/09 12:35:11;;;;;;;14.15;2.75;;;22.10;45.10;;;;;;5064680;28;20594;-76
2022/04/09 12:37:50;;;;;;;5.93;2.20;;;22.10;44.60;;;;;;5064532;28;20100;-74
2022/04/09 12:40:26;;;;;;;11.07;4.03;;;22.00;44.00;;;;;;5064586;28;21021;-74
2022/04/09 12:42:51;;;;;;;6.68;2.42;;;22.10;46.90;;;;;;5065388;28;20067;-75